sensor_id;sensor_type;location;lat;lon;timestamp;pressure;altitude;pressure_sealevel;temperature;humidity
84821;BME280;75463;50.988;11.332;2024-03-17T00:00:41;99590.94;;;0.39;87.88
84821;BME280;75463;50.988;11.332;2024-03-17T00:03:07;99591.22;;;0.55;89.22
84821;BME280;75463;50.988;11.332;2024-03-17T00:05:36;99594.28;;;0.76;88.05
84821;BME280;75463;50.988;11.332;2024-03-17T00:08:02;99593.75;;;0.86;87.78
84821;BME280;75463;50.988;11.332;2024-03-17T00:10:34;99592.28;;;0.72;87.60
84821;BME280;75463;50.988;11.332;2024-03-17T00:13:00;99596.31;;;0.56;88.27
84821;BME280;75463;50.988;11.332;2024-03-17T00:15:29;99600.53;;;0.57;88.57
84821;BME280;75463;50.988;11.332;2024-03-17T00:17:54;99597.50;;;0.60;89.90
84821;BME280;75463;50.988;11.332;2024-03-17T00:20:20;99602.59;;;0.55;89.02
84821;BME280;75463;50.988;11.332;2024-03-17T00:22:49;99604.28;;;0.50;89.42
84821;BME280;75463;50.988;11.332;2024-03-17T00:25:16;99607.25;;;0.60;88.94
84821;BME280;75463;50.988;11.332;2024-03-17T00:27:43;99602.03;;;0.53;89.94
84821;BME280;75463;50.988;11.332;2024-03-17T00:30:11;99603.91;;;0.47;89.98
84821;BME280;75463;50.988;11.332;2024-03-17T00:32:41;99608.00;;;0.43;88.82
84821;BME280;75463;50.988;11.332;2024-03-17T00:35:10;99610.66;;;0.18;88.66
84821;BME280;75463;50.988;11.332;2024-03-17T00:37:39;99604.06;;;0.03;89.71
84821;BME280;75463;50.988;11.332;2024-03-17T00:40:04;99598.81;;;-0.03;89.85
84821;BME280;75463;50.988;11.332;2024-03-17T00:42:31;99617.75;;;-0.06;90.52
84821;BME280;75463;50.988;11.332;2024-03-17T00:44:58;99606.81;;;-0.10;89.80
84821;BME280;75463;50.988;11.332;2024-03-17T00:47:25;99616.97;;;-0.13;90.90
84821;BME280;75463;50.988;11.332;2024-03-17T00:49:50;99609.25;;;0.16;91.79
84821;BME280;75463;50.988;11.332;2024-03-17T00:52:16;99611.53;;;0.37;90.20
84821;BME280;75463;50.988;11.332;2024-03-17T00:54:42;99611.78;;;0.53;89.77
84821;BME280;75463;50.988;11.332;2024-03-17T00:57:07;99605.34;;;0.67;89.26
84821;BME280;75463;50.988;11.332;2024-03-17T00:59:32;99609.88;;;0.60;88.48
84821;BME280;75463;50.988;11.332;2024-03-17T01:01:58;99617.41;;;0.39;88.81
84821;BME280;75463;50.988;11.332;2024-03-17T01:04:23;99609.47;;;0.39;89.05
84821;BME280;75463;50.988;11.332;2024-03-17T01:06:49;99601.38;;;0.34;89.85
84821;BME280;75463;50.988;11.332;2024-03-17T01:09:14;99608.19;;;0.48;89.24
84821;BME280;75463;50.988;11.332;2024-03-17T01:11:39;99606.59;;;0.64;88.67
84821;BME280;75463;50.988;11.332;2024-03-17T01:14:04;99594.56;;;0.68;88.41
84821;BME280;75463;50.988;11.332;2024-03-17T01:16:30;99601.47;;;0.69;88.74
84821;BME280;75463;50.988;11.332;2024-03-17T01:18:55;99602.84;;;0.72;88.49
84821;BME280;75463;50.988;11.332;2024-03-17T01:21:20;99610.59;;;0.73;88.08
84821;BME280;75463;50.988;11.332;2024-03-17T01:23:48;99600.00;;;0.73;87.98
84821;BME280;75463;50.988;11.332;2024-03-17T01:26:13;99608.78;;;0.67;87.89
84821;BME280;75463;50.988;11.332;2024-03-17T01:28:39;99601.28;;;0.64;88.05
84821;BME280;75463;50.988;11.332;2024-03-17T01:31:07;99612.75;;;0.58;88.48
84821;BME280;75463;50.988;11.332;2024-03-17T01:33:32;99603.47;;;0.49;88.53
84821;BME280;75463;50.988;11.332;2024-03-17T01:35:58;99600.50;;;0.40;88.55
84821;BME280;75463;50.988;11.332;2024-03-17T01:38:23;99601.97;;;0.36;88.88
84821;BME280;75463;50.988;11.332;2024-03-17T01:40:48;99603.53;;;0.19;89.13
84821;BME280;75463;50.988;11.332;2024-03-17T01:43:14;99607.50;;;0.03;88.50
84821;BME280;75463;50.988;11.332;2024-03-17T01:45:39;99614.72;;;-0.10;89.59
84821;BME280;75463;50.988;11.332;2024-03-17T01:48:10;99604.25;;;-0.23;90.08
84821;BME280;75463;50.988;11.332;2024-03-17T01:50:39;99600.63;;;-0.35;89.81
84821;BME280;75463;50.988;11.332;2024-03-17T01:53:05;99604.53;;;-0.44;90.17
84821;BME280;75463;50.988;11.332;2024-03-17T01:55:37;99595.22;;;-0.46;91.71
84821;BME280;75463;50.988;11.332;2024-03-17T01:58:03;99603.06;;;-0.33;92.31
84821;BME280;75463;50.988;11.332;2024-03-17T02:00:29;99600.97;;;-0.25;91.39
84821;BME280;75463;50.988;11.332;2024-03-17T02:02:56;99604.63;;;-0.19;90.92
84821;BME280;75463;50.988;11.332;2024-03-17T02:05:21;99604.81;;;-0.21;92.00
84821;BME280;75463;50.988;11.332;2024-03-17T02:07:46;99594.69;;;-0.24;91.36
84821;BME280;75463;50.988;11.332;2024-03-17T02:10:12;99602.81;;;-0.25;91.32
84821;BME280;75463;50.988;11.332;2024-03-17T02:12:37;99604.41;;;-0.18;91.92
84821;BME280;75463;50.988;11.332;2024-03-17T02:15:03;99591.75;;;-0.09;91.53
84821;BME280;75463;50.988;11.332;2024-03-17T02:17:33;99594.13;;;-0.02;91.59
84821;BME280;75463;50.988;11.332;2024-03-17T02:19:59;99598.81;;;-0.03;91.21
84821;BME280;75463;50.988;11.332;2024-03-17T02:22:25;99592.66;;;0.02;91.10
84821;BME280;75463;50.988;11.332;2024-03-17T02:24:50;99600.38;;;0.04;91.20
84821;BME280;75463;50.988;11.332;2024-03-17T02:27:15;99585.56;;;0.03;91.17
84821;BME280;75463;50.988;11.332;2024-03-17T02:29:41;99597.66;;;0.17;91.39
84821;BME280;75463;50.988;11.332;2024-03-17T02:32:07;99584.19;;;0.25;90.72
84821;BME280;75463;50.988;11.332;2024-03-17T02:34:36;99578.66;;;0.26;90.95
84821;BME280;75463;50.988;11.332;2024-03-17T02:37:02;99585.56;;;0.27;90.63
84821;BME280;75463;50.988;11.332;2024-03-17T02:39:29;99577.00;;;0.32;89.97
84821;BME280;75463;50.988;11.332;2024-03-17T02:42:01;99577.13;;;0.19;90.18
84821;BME280;75463;50.988;11.332;2024-03-17T02:44:29;99578.22;;;0.05;90.22
84821;BME280;75463;50.988;11.332;2024-03-17T02:46:55;99590.69;;;-0.02;90.28
84821;BME280;75463;50.988;11.332;2024-03-17T02:49:20;99572.78;;;0.00;90.84
84821;BME280;75463;50.988;11.332;2024-03-17T02:51:47;99571.38;;;-0.02;90.53
84821;BME280;75463;50.988;11.332;2024-03-17T02:54:12;99575.09;;;-0.10;90.12
84821;BME280;75463;50.988;11.332;2024-03-17T02:56:37;99571.91;;;-0.18;90.35
84821;BME280;75463;50.988;11.332;2024-03-17T02:59:03;99570.63;;;-0.09;91.31
84821;BME280;75463;50.988;11.332;2024-03-17T03:01:28;99569.63;;;-0.15;90.61
84821;BME280;75463;50.988;11.332;2024-03-17T03:03:53;99574.69;;;-0.13;90.52
84821;BME280;75463;50.988;11.332;2024-03-17T03:06:19;99563.75;;;-0.17;91.41
84821;BME280;75463;50.988;11.332;2024-03-17T03:08:45;99556.06;;;-0.18;91.59
84821;BME280;75463;50.988;11.332;2024-03-17T03:11:14;99564.31;;;-0.08;91.80
84821;BME280;75463;50.988;11.332;2024-03-17T03:13:43;99567.38;;;-0.11;91.09
84821;BME280;75463;50.988;11.332;2024-03-17T03:16:10;99563.66;;;-0.04;90.71
84821;BME280;75463;50.988;11.332;2024-03-17T03:18:37;99568.88;;;0.02;90.68
84821;BME280;75463;50.988;11.332;2024-03-17T03:21:03;99572.88;;;-0.13;90.67
84821;BME280;75463;50.988;11.332;2024-03-17T03:23:30;99563.34;;;-0.14;91.63
84821;BME280;75463;50.988;11.332;2024-03-17T03:25:57;99571.19;;;-0.07;91.10
84821;BME280;75463;50.988;11.332;2024-03-17T03:28:23;99577.59;;;0.09;90.21
84821;BME280;75463;50.988;11.332;2024-03-17T03:30:48;99581.03;;;0.10;90.26
84821;BME280;75463;50.988;11.332;2024-03-17T03:33:14;99578.16;;;0.11;90.93
84821;BME280;75463;50.988;11.332;2024-03-17T03:35:39;99576.50;;;0.17;90.29
84821;BME280;75463;50.988;11.332;2024-03-17T03:38:04;99574.25;;;0.20;90.71
84821;BME280;75463;50.988;11.332;2024-03-17T03:40:30;99576.06;;;0.20;91.04
84821;BME280;75463;50.988;11.332;2024-03-17T03:42:55;99570.75;;;0.26;91.01
84821;BME280;75463;50.988;11.332;2024-03-17T03:45:21;99572.66;;;0.37;90.58
84821;BME280;75463;50.988;11.332;2024-03-17T03:47:46;99571.31;;;0.52;90.48
84821;BME280;75463;50.988;11.332;2024-03-17T03:50:15;99570.97;;;0.67;90.25
84821;BME280;75463;50.988;11.332;2024-03-17T03:52:40;99574.94;;;0.76;89.97
84821;BME280;75463;50.988;11.332;2024-03-17T03:55:07;99565.66;;;0.85;89.79
84821;BME280;75463;50.988;11.332;2024-03-17T03:57:36;99568.09;;;0.86;90.24
84821;BME280;75463;50.988;11.332;2024-03-17T04:00:02;99577.88;;;0.86;90.56
84821;BME280;75463;50.988;11.332;2024-03-17T04:02:40;99575.63;;;0.89;90.71
84821;BME280;75463;50.988;11.332;2024-03-17T04:05:06;99581.50;;;0.91;90.68
84821;BME280;75463;50.988;11.332;2024-03-17T04:07:32;99576.13;;;0.98;90.88
84821;BME280;75463;50.988;11.332;2024-03-17T04:09:59;99580.56;;;1.03;90.59
84821;BME280;75463;50.988;11.332;2024-03-17T04:12:25;99576.06;;;1.04;88.76
84821;BME280;75463;50.988;11.332;2024-03-17T04:14:51;99587.22;;;1.06;90.09
84821;BME280;75463;50.988;11.332;2024-03-17T04:17:21;99578.25;;;1.07;89.95
84821;BME280;75463;50.988;11.332;2024-03-17T04:19:48;99584.56;;;1.06;88.91
84821;BME280;75463;50.988;11.332;2024-03-17T04:22:14;99576.63;;;1.06;89.90
84821;BME280;75463;50.988;11.332;2024-03-17T04:24:40;99579.72;;;1.03;89.33
84821;BME280;75463;50.988;11.332;2024-03-17T04:27:05;99571.34;;;1.06;89.68
84821;BME280;75463;50.988;11.332;2024-03-17T04:29:31;99573.53;;;1.09;90.16
84821;BME280;75463;50.988;11.332;2024-03-17T04:31:56;99570.69;;;1.10;89.69
84821;BME280;75463;50.988;11.332;2024-03-17T04:34:21;99585.75;;;1.10;90.04
84821;BME280;75463;50.988;11.332;2024-03-17T04:36:46;99591.63;;;1.12;89.38
84821;BME280;75463;50.988;11.332;2024-03-17T04:39:12;99580.19;;;1.18;89.17
84821;BME280;75463;50.988;11.332;2024-03-17T04:41:37;99592.97;;;1.21;89.56
84821;BME280;75463;50.988;11.332;2024-03-17T04:44:06;99584.81;;;1.22;89.86
84821;BME280;75463;50.988;11.332;2024-03-17T04:46:32;99573.72;;;1.14;89.34
84821;BME280;75463;50.988;11.332;2024-03-17T04:48:57;99579.56;;;1.16;89.43
84821;BME280;75463;50.988;11.332;2024-03-17T04:51:23;99579.13;;;1.19;89.38
84821;BME280;75463;50.988;11.332;2024-03-17T04:53:48;99584.44;;;1.19;88.81
84821;BME280;75463;50.988;11.332;2024-03-17T04:56:13;99580.75;;;1.20;88.92
84821;BME280;75463;50.988;11.332;2024-03-17T04:58:39;99593.78;;;1.21;88.76
84821;BME280;75463;50.988;11.332;2024-03-17T05:01:08;99588.38;;;1.28;89.00
84821;BME280;75463;50.988;11.332;2024-03-17T05:03:34;99593.69;;;1.28;89.22
84821;BME280;75463;50.988;11.332;2024-03-17T05:06:03;99594.84;;;1.32;88.85
84821;BME280;75463;50.988;11.332;2024-03-17T05:08:30;99594.56;;;1.40;88.88
84821;BME280;75463;50.988;11.332;2024-03-17T05:10:59;99605.28;;;1.45;89.14
84821;BME280;75463;50.988;11.332;2024-03-17T05:13:26;99598.81;;;1.41;88.00
84821;BME280;75463;50.988;11.332;2024-03-17T05:15:52;99601.31;;;1.53;88.55
84821;BME280;75463;50.988;11.332;2024-03-17T05:18:17;99608.22;;;1.54;89.42
84821;BME280;75463;50.988;11.332;2024-03-17T05:20:43;99610.44;;;1.57;88.45
84821;BME280;75463;50.988;11.332;2024-03-17T05:23:08;99603.50;;;1.56;87.88
84821;BME280;75463;50.988;11.332;2024-03-17T05:25:33;99613.53;;;1.54;88.23
84821;BME280;75463;50.988;11.332;2024-03-17T05:28:02;99600.63;;;1.58;88.45
84821;BME280;75463;50.988;11.332;2024-03-17T05:30:27;99611.03;;;1.59;88.46
84821;BME280;75463;50.988;11.332;2024-03-17T05:32:53;99613.47;;;1.61;87.68
84821;BME280;75463;50.988;11.332;2024-03-17T05:35:18;99619.38;;;1.74;87.76
84821;BME280;75463;50.988;11.332;2024-03-17T05:37:43;99619.22;;;1.87;88.58
84821;BME280;75463;50.988;11.332;2024-03-17T05:40:10;99614.63;;;1.94;88.38
84821;BME280;75463;50.988;11.332;2024-03-17T05:42:37;99619.47;;;1.97;87.87
84821;BME280;75463;50.988;11.332;2024-03-17T05:45:03;99631.09;;;1.96;87.13
84821;BME280;75463;50.988;11.332;2024-03-17T05:47:28;99624.78;;;1.97;88.17
84821;BME280;75463;50.988;11.332;2024-03-17T05:49:54;99633.53;;;1.98;87.39
84821;BME280;75463;50.988;11.332;2024-03-17T05:52:21;99629.88;;;2.10;86.85
84821;BME280;75463;50.988;11.332;2024-03-17T05:54:46;99629.44;;;2.13;87.74
84821;BME280;75463;50.988;11.332;2024-03-17T05:57:12;99634.84;;;2.18;87.02
84821;BME280;75463;50.988;11.332;2024-03-17T05:59:39;99639.94;;;2.19;86.09
84821;BME280;75463;50.988;11.332;2024-03-17T06:02:04;99637.91;;;2.33;87.17
84821;BME280;75463;50.988;11.332;2024-03-17T06:04:29;99627.19;;;2.39;87.63
84821;BME280;75463;50.988;11.332;2024-03-17T06:06:55;99634.00;;;2.47;85.94
84821;BME280;75463;50.988;11.332;2024-03-17T06:09:20;99636.91;;;2.56;86.10
84821;BME280;75463;50.988;11.332;2024-03-17T06:11:46;99631.13;;;2.48;86.08
84821;BME280;75463;50.988;11.332;2024-03-17T06:14:11;99638.03;;;2.49;85.31
84821;BME280;75463;50.988;11.332;2024-03-17T06:16:38;99622.16;;;2.72;85.00
84821;BME280;75463;50.988;11.332;2024-03-17T06:19:03;99626.16;;;2.74;85.34
84821;BME280;75463;50.988;11.332;2024-03-17T06:21:29;99637.94;;;2.78;85.19
84821;BME280;75463;50.988;11.332;2024-03-17T06:23:54;99629.06;;;2.84;84.94
84821;BME280;75463;50.988;11.332;2024-03-17T06:26:19;99631.84;;;2.89;84.22
84821;BME280;75463;50.988;11.332;2024-03-17T06:28:46;99639.91;;;2.94;83.92
84821;BME280;75463;50.988;11.332;2024-03-17T06:31:11;99631.84;;;3.00;83.45
84821;BME280;75463;50.988;11.332;2024-03-17T06:33:36;99631.94;;;3.17;83.50
84821;BME280;75463;50.988;11.332;2024-03-17T06:36:03;99642.31;;;3.30;83.34
84821;BME280;75463;50.988;11.332;2024-03-17T06:38:34;99634.56;;;3.40;82.48
84821;BME280;75463;50.988;11.332;2024-03-17T06:40:59;99638.06;;;3.68;81.96
84821;BME280;75463;50.988;11.332;2024-03-17T06:43:24;99629.25;;;3.79;82.01
84821;BME280;75463;50.988;11.332;2024-03-17T06:45:54;99645.13;;;4.18;80.64
84821;BME280;75463;50.988;11.332;2024-03-17T06:48:20;99639.22;;;4.44;79.33
84821;BME280;75463;50.988;11.332;2024-03-17T06:50:45;99638.34;;;4.71;77.18
84821;BME280;75463;50.988;11.332;2024-03-17T06:53:10;99630.50;;;4.97;77.16
84821;BME280;75463;50.988;11.332;2024-03-17T06:55:36;99632.59;;;5.11;77.09
84821;BME280;75463;50.988;11.332;2024-03-17T06:58:01;99630.38;;;5.25;77.02
84821;BME280;75463;50.988;11.332;2024-03-17T07:00:28;99635.41;;;5.05;76.55
84821;BME280;75463;50.988;11.332;2024-03-17T07:02:53;99637.13;;;4.95;76.15
84821;BME280;75463;50.988;11.332;2024-03-17T07:05:19;99640.03;;;4.93;77.61
84821;BME280;75463;50.988;11.332;2024-03-17T07:07:45;99628.88;;;4.96;77.54
84821;BME280;75463;50.988;11.332;2024-03-17T07:10:11;99626.41;;;5.27;75.16
84821;BME280;75463;50.988;11.332;2024-03-17T07:12:38;99628.81;;;5.29;75.87
84821;BME280;75463;50.988;11.332;2024-03-17T07:15:04;99632.06;;;5.52;74.67
84821;BME280;75463;50.988;11.332;2024-03-17T07:17:30;99631.50;;;5.71;76.48
84821;BME280;75463;50.988;11.332;2024-03-17T07:19:55;99638.25;;;6.00;73.08
84821;BME280;75463;50.988;11.332;2024-03-17T07:22:20;99626.59;;;6.32;73.50
84821;BME280;75463;50.988;11.332;2024-03-17T07:24:47;99627.84;;;6.56;72.02
84821;BME280;75463;50.988;11.332;2024-03-17T07:27:13;99639.47;;;6.71;72.45
84821;BME280;75463;50.988;11.332;2024-03-17T07:29:40;99633.97;;;6.83;70.15
84821;BME280;75463;50.988;11.332;2024-03-17T07:32:05;99635.44;;;7.00;69.73
84821;BME280;75463;50.988;11.332;2024-03-17T07:34:31;99632.03;;;7.14;69.08
84821;BME280;75463;50.988;11.332;2024-03-17T07:36:57;99627.34;;;6.90;70.51
84821;BME280;75463;50.988;11.332;2024-03-17T07:39:28;99627.50;;;7.15;70.06
84821;BME280;75463;50.988;11.332;2024-03-17T07:41:59;99627.53;;;7.20;69.11
84821;BME280;75463;50.988;11.332;2024-03-17T07:44:27;99634.22;;;7.68;68.28
84821;BME280;75463;50.988;11.332;2024-03-17T07:46:54;99627.44;;;8.12;65.75
84821;BME280;75463;50.988;11.332;2024-03-17T07:49:19;99622.91;;;9.11;64.41
84821;BME280;75463;50.988;11.332;2024-03-17T07:51:45;99622.56;;;9.38;62.42
84821;BME280;75463;50.988;11.332;2024-03-17T07:54:10;99623.09;;;9.45;61.98
84821;BME280;75463;50.988;11.332;2024-03-17T07:56:37;99624.97;;;10.88;57.00
84821;BME280;75463;50.988;11.332;2024-03-17T07:59:02;99614.59;;;12.21;53.37
84821;BME280;75463;50.988;11.332;2024-03-17T08:01:35;99617.44;;;13.43;47.86
84821;BME280;75463;50.988;11.332;2024-03-17T08:04:00;99607.41;;;12.85;48.44
84821;BME280;75463;50.988;11.332;2024-03-17T08:06:25;99598.09;;;13.23;46.74
84821;BME280;75463;50.988;11.332;2024-03-17T08:08:50;99596.91;;;13.55;46.37
84821;BME280;75463;50.988;11.332;2024-03-17T08:11:16;99603.94;;;14.89;44.07
84821;BME280;75463;50.988;11.332;2024-03-17T08:13:41;99595.28;;;14.56;43.59
84821;BME280;75463;50.988;11.332;2024-03-17T08:16:07;99599.69;;;14.17;45.66
84821;BME280;75463;50.988;11.332;2024-03-17T08:18:35;99603.78;;;15.37;42.68
84821;BME280;75463;50.988;11.332;2024-03-17T08:21:02;99601.53;;;16.25;39.10
84821;BME280;75463;50.988;11.332;2024-03-17T08:23:31;99595.22;;;15.99;39.56
84821;BME280;75463;50.988;11.332;2024-03-17T08:25:58;99591.66;;;15.82;40.51
84821;BME280;75463;50.988;11.332;2024-03-17T08:28:25;99589.16;;;17.28;37.10
84821;BME280;75463;50.988;11.332;2024-03-17T08:30:56;99593.69;;;16.82;36.97
84821;BME280;75463;50.988;11.332;2024-03-17T08:33:22;99591.09;;;17.11;35.27
84821;BME280;75463;50.988;11.332;2024-03-17T08:35:59;99585.09;;;16.63;34.73
84821;BME280;75463;50.988;11.332;2024-03-17T08:38:26;99574.78;;;17.11;33.96
84821;BME280;75463;50.988;11.332;2024-03-17T08:40:53;99572.66;;;17.70;32.59
84821;BME280;75463;50.988;11.332;2024-03-17T08:43:19;99573.81;;;17.98;32.20
84821;BME280;75463;50.988;11.332;2024-03-17T08:45:45;99579.50;;;17.76;32.42
84821;BME280;75463;50.988;11.332;2024-03-17T08:48:19;99579.81;;;18.32;30.62
84821;BME280;75463;50.988;11.332;2024-03-17T08:50:50;99577.25;;;18.36;29.69
84821;BME280;75463;50.988;11.332;2024-03-17T08:53:16;99570.22;;;18.67;28.50
84821;BME280;75463;50.988;11.332;2024-03-17T08:55:41;99562.13;;;19.11;29.38
84821;BME280;75463;50.988;11.332;2024-03-17T08:58:06;99563.47;;;19.05;28.80
84821;BME280;75463;50.988;11.332;2024-03-17T09:00:32;99560.16;;;19.44;27.83
84821;BME280;75463;50.988;11.332;2024-03-17T09:02:57;99567.13;;;20.01;27.61
84821;BME280;75463;50.988;11.332;2024-03-17T09:05:23;99566.41;;;19.44;26.37
84821;BME280;75463;50.988;11.332;2024-03-17T09:07:48;99565.22;;;19.89;25.60
84821;BME280;75463;50.988;11.332;2024-03-17T09:10:14;99567.69;;;19.94;25.92
84821;BME280;75463;50.988;11.332;2024-03-17T09:12:39;99564.47;;;20.67;25.30
84821;BME280;75463;50.988;11.332;2024-03-17T09:15:06;99570.28;;;21.20;24.76
84821;BME280;75463;50.988;11.332;2024-03-17T09:17:31;99567.16;;;20.79;24.88
84821;BME280;75463;50.988;11.332;2024-03-17T09:19:56;99558.88;;;20.24;25.43
84821;BME280;75463;50.988;11.332;2024-03-17T09:22:22;99565.06;;;19.74;26.77
84821;BME280;75463;50.988;11.332;2024-03-17T09:24:47;99561.88;;;19.04;27.26
84821;BME280;75463;50.988;11.332;2024-03-17T09:27:12;99555.75;;;19.99;26.24
84821;BME280;75463;50.988;11.332;2024-03-17T09:29:45;99559.78;;;20.67;25.70
84821;BME280;75463;50.988;11.332;2024-03-17T09:32:11;99549.59;;;20.41;24.97
84821;BME280;75463;50.988;11.332;2024-03-17T09:34:42;99543.88;;;20.85;24.73
84821;BME280;75463;50.988;11.332;2024-03-17T09:37:08;99544.22;;;20.56;25.49
84821;BME280;75463;50.988;11.332;2024-03-17T09:39:34;99540.38;;;20.84;25.37
84821;BME280;75463;50.988;11.332;2024-03-17T09:41:59;99548.06;;;20.94;24.83
84821;BME280;75463;50.988;11.332;2024-03-17T09:44:25;99534.88;;;21.11;24.54
84821;BME280;75463;50.988;11.332;2024-03-17T09:46:51;99537.59;;;21.27;24.16
84821;BME280;75463;50.988;11.332;2024-03-17T09:49:17;99539.13;;;21.24;24.65
84821;BME280;75463;50.988;11.332;2024-03-17T09:51:42;99548.06;;;21.09;24.38
84821;BME280;75463;50.988;11.332;2024-03-17T09:54:21;99538.47;;;21.31;24.77
84821;BME280;75463;50.988;11.332;2024-03-17T09:56:46;99551.75;;;20.86;24.92
84821;BME280;75463;50.988;11.332;2024-03-17T09:59:11;99545.00;;;20.68;24.67
84821;BME280;75463;50.988;11.332;2024-03-17T10:01:37;99541.50;;;20.83;24.70
84821;BME280;75463;50.988;11.332;2024-03-17T10:04:02;99548.03;;;20.40;25.48
84821;BME280;75463;50.988;11.332;2024-03-17T10:06:31;99540.81;;;20.08;26.37
84821;BME280;75463;50.988;11.332;2024-03-17T10:08:59;99547.72;;;20.17;25.63
84821;BME280;75463;50.988;11.332;2024-03-17T10:11:42;99537.84;;;19.77;26.25
84821;BME280;75463;50.988;11.332;2024-03-17T10:14:08;99540.88;;;20.35;25.65
84821;BME280;75463;50.988;11.332;2024-03-17T10:16:37;99538.88;;;19.73;26.12
84821;BME280;75463;50.988;11.332;2024-03-17T10:19:22;99533.31;;;19.81;26.24
84821;BME280;75463;50.988;11.332;2024-03-17T10:21:48;99532.28;;;19.86;26.19
84821;BME280;75463;50.988;11.332;2024-03-17T10:24:21;99533.75;;;19.36;26.96
84821;BME280;75463;50.988;11.332;2024-03-17T10:26:47;99522.75;;;19.56;26.37
84821;BME280;75463;50.988;11.332;2024-03-17T10:29:20;99531.22;;;20.26;26.72
84821;BME280;75463;50.988;11.332;2024-03-17T10:31:46;99525.00;;;20.68;25.34
84821;BME280;75463;50.988;11.332;2024-03-17T10:34:15;99518.91;;;20.59;24.71
84821;BME280;75463;50.988;11.332;2024-03-17T10:36:46;99531.47;;;20.21;25.68
84821;BME280;75463;50.988;11.332;2024-03-17T10:39:26;99517.75;;;20.33;25.69
84821;BME280;75463;50.988;11.332;2024-03-17T10:41:59;99510.25;;;20.30;25.28
84821;BME280;75463;50.988;11.332;2024-03-17T10:44:28;99514.34;;;19.49;25.76
84821;BME280;75463;50.988;11.332;2024-03-17T10:46:54;99514.88;;;19.19;26.54
84821;BME280;75463;50.988;11.332;2024-03-17T10:49:27;99509.22;;;19.95;25.41
84821;BME280;75463;50.988;11.332;2024-03-17T10:51:57;99507.38;;;20.38;25.70
84821;BME280;75463;50.988;11.332;2024-03-17T10:54:26;99505.59;;;20.58;24.66
84821;BME280;75463;50.988;11.332;2024-03-17T10:56:54;99500.44;;;20.02;25.64
84821;BME280;75463;50.988;11.332;2024-03-17T10:59:25;99501.25;;;19.90;25.60
84821;BME280;75463;50.988;11.332;2024-03-17T11:01:53;99510.19;;;18.75;26.74
84821;BME280;75463;50.988;11.332;2024-03-17T11:04:20;99504.75;;;19.79;26.38
84821;BME280;75463;50.988;11.332;2024-03-17T11:06:47;99498.06;;;19.64;26.07
84821;BME280;75463;50.988;11.332;2024-03-17T11:09:15;99503.28;;;19.46;26.22
84821;BME280;75463;50.988;11.332;2024-03-17T11:11:41;99495.94;;;18.90;27.52
84821;BME280;75463;50.988;11.332;2024-03-17T11:14:15;99504.69;;;18.52;27.37
84821;BME280;75463;50.988;11.332;2024-03-17T11:16:40;99501.13;;;19.15;27.14
84821;BME280;75463;50.988;11.332;2024-03-17T11:19:06;99492.72;;;19.44;26.30
84821;BME280;75463;50.988;11.332;2024-03-17T11:21:32;99494.44;;;19.49;26.38
84821;BME280;75463;50.988;11.332;2024-03-17T11:24:01;99491.50;;;19.42;26.55
84821;BME280;75463;50.988;11.332;2024-03-17T11:26:28;99489.31;;;19.47;26.45
84821;BME280;75463;50.988;11.332;2024-03-17T11:28:54;99489.63;;;19.10;26.60
84821;BME280;75463;50.988;11.332;2024-03-17T11:31:40;99493.50;;;19.09;26.51
84821;BME280;75463;50.988;11.332;2024-03-17T11:34:32;99493.28;;;19.14;26.86
84821;BME280;75463;50.988;11.332;2024-03-17T11:36:59;99494.53;;;19.40;26.55
84821;BME280;75463;50.988;11.332;2024-03-17T11:39:54;99489.91;;;19.29;27.41
84821;BME280;75463;50.988;11.332;2024-03-17T11:42:24;99492.72;;;19.20;27.59
84821;BME280;75463;50.988;11.332;2024-03-17T11:44:59;99476.56;;;19.04;28.04
84821;BME280;75463;50.988;11.332;2024-03-17T11:47:43;99474.00;;;18.87;28.24
84821;BME280;75463;50.988;11.332;2024-03-17T11:50:10;99463.56;;;18.45;28.65
84821;BME280;75463;50.988;11.332;2024-03-17T11:52:38;99466.88;;;18.09;28.78
84821;BME280;75463;50.988;11.332;2024-03-17T11:55:06;99460.72;;;18.21;29.84
84821;BME280;75463;50.988;11.332;2024-03-17T11:57:39;99453.25;;;18.50;28.88
84821;BME280;75463;50.988;11.332;2024-03-17T12:00:05;99467.28;;;17.79;28.67
84821;BME280;75463;50.988;11.332;2024-03-17T12:02:48;99468.56;;;17.53;29.76
84821;BME280;75463;50.988;11.332;2024-03-17T12:05:13;99461.09;;;17.70;29.92
84821;BME280;75463;50.988;11.332;2024-03-17T12:07:42;99458.94;;;17.35;30.33
84821;BME280;75463;50.988;11.332;2024-03-17T12:10:10;99458.75;;;16.57;30.71
84821;BME280;75463;50.988;11.332;2024-03-17T12:12:36;99461.63;;;16.36;31.42
84821;BME280;75463;50.988;11.332;2024-03-17T12:15:02;99454.44;;;16.31;31.50
84821;BME280;75463;50.988;11.332;2024-03-17T12:17:28;99441.19;;;16.38;31.23
84821;BME280;75463;50.988;11.332;2024-03-17T12:19:53;99445.31;;;16.52;31.55
84821;BME280;75463;50.988;11.332;2024-03-17T12:22:22;99442.78;;;16.48;31.64
84821;BME280;75463;50.988;11.332;2024-03-17T12:24:49;99446.63;;;16.38;31.74
84821;BME280;75463;50.988;11.332;2024-03-17T12:27:20;99436.09;;;16.37;31.38
84821;BME280;75463;50.988;11.332;2024-03-17T12:29:47;99428.88;;;16.57;31.62
84821;BME280;75463;50.988;11.332;2024-03-17T12:32:15;99430.28;;;16.63;30.47
84821;BME280;75463;50.988;11.332;2024-03-17T12:34:42;99422.53;;;16.28;31.90
84821;BME280;75463;50.988;11.332;2024-03-17T12:37:08;99421.75;;;15.94;31.84
84821;BME280;75463;50.988;11.332;2024-03-17T12:39:34;99418.88;;;15.99;31.82
84821;BME280;75463;50.988;11.332;2024-03-17T12:42:27;99417.28;;;15.81;33.37
84821;BME280;75463;50.988;11.332;2024-03-17T12:44:56;99417.91;;;15.95;32.60
84821;BME280;75463;50.988;11.332;2024-03-17T12:47:23;99426.84;;;15.62;32.92
84821;BME280;75463;50.988;11.332;2024-03-17T12:49:50;99424.75;;;15.59;33.81
84821;BME280;75463;50.988;11.332;2024-03-17T12:52:23;99411.84;;;15.64;33.96
84821;BME280;75463;50.988;11.332;2024-03-17T12:54:59;99411.69;;;15.44;32.42